Time;durP1;ratioP1;P1;durP2;ratioP2;P2;SDS_P1;SDS_P2;PMS_P1;PMS_P2;Temp;Humidity;BMP_temperature;BMP_pressure;BME280_temperature;BME280_humidity;BME280_pressure;Samples;Min_cycle;Max_cycle;Signal;HPM_P1;HPM_P2
2022/06/04 00:00:57;;;;;;;3;2.1;;;;;;;;;;;;;
2022/06/04 00:03:27;;;;;;;4.2;2.5;;;;;;;;;;;;;
2022/06/04 00:05:56;;;;;;;4;2.2;;;;;;;;;;;;;
2022/06/04 00:08:24;;;;;;;2.4;2;;;;;;;;;;;;;
2022/06/04 00:15:55;;;;;;;2.2;1.9;;;;;;;;;;;;;
2022/06/04 00:18:23;;;;;;;2.2;2;;;;;;;;;;;;;
2022/06/04 00:20:57;;;;;;;4.1;2.3;;;;;;;;;;;;;
2022/06/04 00:23:26;;;;;;;2.3;2.1;;;;;;;;;;;;;
2022/06/04 00:25:50;;;;;;;3.5;2.4;;;;;;;;;;;;;
2022/06/04 00:28:15;;;;;;;3;2.2;;;;;;;;;;;;;
2022/06/04 00:30:42;;;;;;;4;2.5;;;;;;;;;;;;;
2022/06/04 00:33:07;;;;;;;3.3;2;;;;;;;;;;;;;
2022/06/04 00:35:33;;;;;;;3.9;2.3;;;;;;;;;;;;;
2022/06/04 00:37:57;;;;;;;2.8;2.5;;;;;;;;;;;;;
2022/06/04 00:40:23;;;;;;;3.9;2.2;;;;;;;;;;;;;
2022/06/04 00:42:48;;;;;;;3.7;2.3;;;;;;;;;;;;;
2022/06/04 00:45:13;;;;;;;2.7;2.5;;;;;;;;;;;;;
2022/06/04 00:47:40;;;;;;;2.7;2.4;;;;;;;;;;;;;
2022/06/04 00:50:09;;;;;;;3.8;2.7;;;;;;;;;;;;;
2022/06/04 00:52:33;;;;;;;3.7;2.5;;;;;;;;;;;;;
2022/06/04 00:55:22;;;;;;;3;2.2;;;;;;;;;;;;;
2022/06/04 00:57:47;;;;;;;3.6;2.4;;;;;;;;;;;;;
2022/06/04 01:00:13;;;;;;;3.7;2.4;;;;;;;;;;;;;
2022/06/04 01:02:37;;;;;;;3.3;2.2;;;;;;;;;;;;;
2022/06/04 01:05:04;;;;;;;2.9;2.1;;;;;;;;;;;;;
2022/06/04 01:07:32;;;;;;;4.1;2.3;;;;;;;;;;;;;
2022/06/04 01:09:57;;;;;;;5;2.2;;;;;;;;;;;;;
2022/06/04 01:12:22;;;;;;;2.7;2.1;;;;;;;;;;;;;
2022/06/04 01:17:15;;;;;;;4.1;2.5;;;;;;;;;;;;;
2022/06/04 01:19:47;;;;;;;3.4;2.4;;;;;;;;;;;;;
2022/06/04 01:22:22;;;;;;;2.6;2.3;;;;;;;;;;;;;
2022/06/04 01:24:48;;;;;;;4.2;2.5;;;;;;;;;;;;;
2022/06/04 01:27:14;;;;;;;2.9;2.1;;;;;;;;;;;;;
2022/06/04 01:29:39;;;;;;;3.1;2.4;;;;;;;;;;;;;
2022/06/04 01:32:04;;;;;;;3.1;2.3;;;;;;;;;;;;;
2022/06/04 01:34:29;;;;;;;4.6;2.1;;;;;;;;;;;;;
2022/06/04 01:36:54;;;;;;;5.3;2.5;;;;;;;;;;;;;
2022/06/04 01:39:19;;;;;;;4.8;2.7;;;;;;;;;;;;;
2022/06/04 01:41:45;;;;;;;3.6;2.2;;;;;;;;;;;;;
2022/06/04 01:44:10;;;;;;;3.4;2;;;;;;;;;;;;;
2022/06/04 01:46:35;;;;;;;3.2;2.1;;;;;;;;;;;;;
2022/06/04 01:49:00;;;;;;;2.5;2.2;;;;;;;;;;;;;
2022/06/04 01:51:25;;;;;;;2.3;2;;;;;;;;;;;;;
2022/06/04 01:53:50;;;;;;;2.5;2.1;;;;;;;;;;;;;
2022/06/04 01:56:15;;;;;;;3.8;2;;;;;;;;;;;;;
2022/06/04 01:58:40;;;;;;;3;2.2;;;;;;;;;;;;;
2022/06/04 02:01:05;;;;;;;3.4;2;;;;;;;;;;;;;
2022/06/04 02:03:30;;;;;;;3.5;2.4;;;;;;;;;;;;;
2022/06/04 02:05:55;;;;;;;3.3;2;;;;;;;;;;;;;
2022/06/04 02:08:20;;;;;;;2.1;1.9;;;;;;;;;;;;;
2022/06/04 02:10:45;;;;;;;6.1;2.1;;;;;;;;;;;;;
2022/06/04 02:13:11;;;;;;;3.4;2.2;;;;;;;;;;;;;
2022/06/04 02:15:36;;;;;;;5.1;2.6;;;;;;;;;;;;;
2022/06/04 02:18:01;;;;;;;2.1;1.9;;;;;;;;;;;;;
2022/06/04 02:20:26;;;;;;;2.7;2.1;;;;;;;;;;;;;
2022/06/04 02:22:51;;;;;;;3.9;2.1;;;;;;;;;;;;;
2022/06/04 02:25:16;;;;;;;4.3;2;;;;;;;;;;;;;
2022/06/04 02:27:43;;;;;;;3.6;2;;;;;;;;;;;;;
2022/06/04 02:30:06;;;;;;;3;2.1;;;;;;;;;;;;;
2022/06/04 02:32:32;;;;;;;4.7;2.1;;;;;;;;;;;;;
2022/06/04 02:34:57;;;;;;;2.7;2;;;;;;;;;;;;;
2022/06/04 02:37:22;;;;;;;4.5;2.2;;;;;;;;;;;;;
2022/06/04 02:39:47;;;;;;;3.3;2.3;;;;;;;;;;;;;
2022/06/04 02:42:12;;;;;;;2.9;2;;;;;;;;;;;;;
2022/06/04 02:44:37;;;;;;;4;2;;;;;;;;;;;;;
2022/06/04 02:47:02;;;;;;;3.5;2.2;;;;;;;;;;;;;
2022/06/04 02:49:27;;;;;;;2.4;2.2;;;;;;;;;;;;;
2022/06/04 02:51:52;;;;;;;3.9;2.2;;;;;;;;;;;;;
2022/06/04 02:54:18;;;;;;;3.1;2;;;;;;;;;;;;;
2022/06/04 02:56:43;;;;;;;3;2.4;;;;;;;;;;;;;
2022/06/04 02:59:08;;;;;;;3.1;2.1;;;;;;;;;;;;;
2022/06/04 03:01:33;;;;;;;3.5;2.5;;;;;;;;;;;;;
2022/06/04 03:03:58;;;;;;;2.7;2.2;;;;;;;;;;;;;
2022/06/04 03:06:23;;;;;;;3.1;2.1;;;;;;;;;;;;;
2022/06/04 03:08:48;;;;;;;3.6;2.1;;;;;;;;;;;;;
2022/06/04 03:11:13;;;;;;;3.3;2.3;;;;;;;;;;;;;
2022/06/04 03:13:38;;;;;;;2.7;2;;;;;;;;;;;;;
2022/06/04 03:16:03;;;;;;;3.4;2.2;;;;;;;;;;;;;
2022/06/04 03:18:28;;;;;;;2.7;1.9;;;;;;;;;;;;;
2022/06/04 03:20:54;;;;;;;4.4;2.1;;;;;;;;;;;;;
2022/06/04 03:23:19;;;;;;;4.3;2.4;;;;;;;;;;;;;
2022/06/04 03:25:44;;;;;;;3.1;2.2;;;;;;;;;;;;;
2022/06/04 03:28:09;;;;;;;3.4;2.1;;;;;;;;;;;;;
2022/06/04 03:30:34;;;;;;;3.3;2.3;;;;;;;;;;;;;
2022/06/04 03:32:59;;;;;;;3.5;2.6;;;;;;;;;;;;;
2022/06/04 03:35:24;;;;;;;3.3;2.6;;;;;;;;;;;;;
2022/06/04 03:37:49;;;;;;;3.9;2.2;;;;;;;;;;;;;
2022/06/04 03:40:14;;;;;;;2.3;2;;;;;;;;;;;;;
2022/06/04 03:42:39;;;;;;;3.3;2.4;;;;;;;;;;;;;
2022/06/04 03:45:05;;;;;;;3.8;2.2;;;;;;;;;;;;;
2022/06/04 03:47:33;;;;;;;3.7;2.3;;;;;;;;;;;;;
2022/06/04 03:49:55;;;;;;;3.2;2.3;;;;;;;;;;;;;
2022/06/04 03:52:20;;;;;;;5.1;2.5;;;;;;;;;;;;;
2022/06/04 03:54:54;;;;;;;3.5;2.2;;;;;;;;;;;;;
2022/06/04 03:59:35;;;;;;;2.6;2.2;;;;;;;;;;;;;
2022/06/04 04:02:31;;;;;;;2.9;2.3;;;;;;;13.95;94.07715;939.2708;;;;
2022/06/04 04:04:56;;;;;;;3.1;2.2;;;;;;;13.88;94.62598;939.3781;;;;
2022/06/04 04:07:21;;;;;;;4.7;2.6;;;;;;;13.83;94.78613;939.4142;;;;
2022/06/04 04:09:46;;;;;;;3.4;2.2;;;;;;;13.74;95.14648;939.394;;;;
2022/06/04 04:12:11;;;;;;;3.7;2.1;;;;;;;13.89;95.46777;939.3541;;;;
2022/06/04 04:14:36;;;;;;;3.5;2.3;;;;;;;13.96;94.33203;939.3628;;;;
2022/06/04 04:17:01;;;;;;;4.6;2.5;;;;;;;14.08;93.96484;939.3805;;;;
2022/06/04 04:19:28;;;;;;;3.3;2.4;;;;;;;14.1;93.9707;939.3516;;;;
2022/06/04 04:21:52;;;;;;;4.2;2.1;;;;;;;14.17;94.07813;939.3234;;;;
2022/06/04 04:24:17;;;;;;;5.2;2.3;;;;;;;14.33;93.31641;939.3256;;;;
2022/06/04 04:26:45;;;;;;;3.6;2.6;;;;;;;14.46;92.7793;939.3666;;;;
2022/06/04 04:29:07;;;;;;;4.1;2.5;;;;;;;14.56;91.9375;939.3405;;;;
2022/06/04 04:31:32;;;;;;;3.9;2.6;;;;;;;14.58;91.69922;939.2626;;;;
2022/06/04 04:33:57;;;;;;;4.3;2.8;;;;;;;14.57;91.87012;939.3141;;;;
2022/06/04 04:36:23;;;;;;;3.6;2.4;;;;;;;14.56;91.78809;939.274;;;;
2022/06/04 04:38:49;;;;;;;3.2;1.9;;;;;;;14.54;91.87402;939.2822;;;;
2022/06/04 04:41:13;;;;;;;3.2;2;;;;;;;14.53;92.1377;939.2645;;;;
2022/06/04 04:43:38;;;;;;;3.5;2;;;;;;;14.5;92.05273;939.2623;;;;
2022/06/04 04:46:03;;;;;;;3.2;2.1;;;;;;;14.53;92.30078;939.2589;;;;
2022/06/04 04:48:28;;;;;;;4.5;2.3;;;;;;;14.6;92.04883;939.2506;;;;
2022/06/04 04:50:53;;;;;;;3;2;;;;;;;14.6;92.1416;939.2473;;;;
2022/06/04 04:53:18;;;;;;;2.9;2;;;;;;;14.7;91.80664;939.2224;;;;
2022/06/04 04:55:43;;;;;;;4.8;2.7;;;;;;;14.75;91.62012;939.2598;;;;
2022/06/04 04:58:09;;;;;;;5;3;;;;;;;14.89;90.94531;939.3267;;;;
2022/06/04 05:00:34;;;;;;;4.6;2.5;;;;;;;15.07;90.42871;939.3661;;;;
2022/06/04 05:02:59;;;;;;;4.6;2.6;;;;;;;15.41;89.81738;939.3537;;;;
2022/06/04 05:05:24;;;;;;;3.5;2.6;;;;;;;16.83;85.23535;939.2939;;;;
2022/06/04 05:07:49;;;;;;;4.6;2.6;;;;;;;18.51;76.33789;939.3031;;;;
2022/06/04 05:10:14;;;;;;;6.3;3.4;;;;;;;18.85;73.60449;939.2723;;;;
2022/06/04 05:12:39;;;;;;;4.4;3;;;;;;;19.71;71.91602;939.2779;;;;
2022/06/04 05:15:15;;;;;;;4.5;2.7;;;;;;;21.17;65.74512;939.3438;;;;
2022/06/04 05:17:41;;;;;;;3.8;2.2;;;;;;;21.37;62.74316;939.2928;;;;
2022/06/04 05:20:05;;;;;;;4.1;1.7;;;;;;;20.49;65.3291;939.4081;;;;
2022/06/04 05:22:30;;;;;;;1.7;1.6;;;;;;;22.03;61.51172;939.355;;;;
2022/06/04 05:24:55;;;;;;;2.2;1.4;;;;;;;21.41;63.6377;939.2925;;;;
2022/06/04 05:27:20;;;;;;;2.9;1.7;;;;;;;21.61;62.50879;939.2574;;;;
2022/06/04 05:29:45;;;;;;;2.9;1.4;;;;;;;21.53;61.53809;939.199;;;;
2022/06/04 05:32:11;;;;;;;2.5;1.3;;;;;;;22.63;62.10059;939.2236;;;;
2022/06/04 05:34:35;;;;;;;3.4;1.2;;;;;;;23.21;56.42285;939.2104;;;;
2022/06/04 05:37:01;;;;;;;2.1;1.3;;;;;;;24.61;53.28711;939.2434;;;;
2022/06/04 05:39:25;;;;;;;3.4;1.2;;;;;;;24.67;50.80664;939.2939;;;;
2022/06/04 05:41:51;;;;;;;2.6;1.2;;;;;;;23.64;54.62988;939.3342;;;;
2022/06/04 05:44:16;;;;;;;4.1;1.2;;;;;;;23.66;57.04297;939.2381;;;;
2022/06/04 05:46:42;;;;;;;1.5;1.3;;;;;;;24.55;54.12793;939.2125;;;;
2022/06/04 05:49:06;;;;;;;2.6;1.3;;;;;;;24.84;52.50098;939.0992;;;;
2022/06/04 05:51:46;;;;;;;1.5;1.4;;;;;;;24.92;53.4668;939.0779;;;;
2022/06/04 05:53:56;;;;;;;2.9;1.2;;;;;;;25.73;50.1582;939.1247;;;;
2022/06/04 05:56:22;;;;;;;3.8;1.6;;;;;;;24.56;53.71777;939.1558;;;;
2022/06/04 05:58:48;;;;;;;2.4;1.5;;;;;;;24.2;53.88672;939.1255;;;;
2022/06/04 06:01:12;;;;;;;2.1;1.4;;;;;;;24.4;53.09766;939.0998;;;;
2022/06/04 06:03:37;;;;;;;4;1.5;;;;;;;24.45;51.8418;939.2509;;;;
2022/06/04 06:06:03;;;;;;;2.5;1.2;;;;;;;24.62;52.74609;939.3502;;;;
2022/06/04 06:08:27;;;;;;;3.5;1.6;;;;;;;26.36;50.67969;939.3876;;;;
2022/06/04 06:10:52;;;;;;;4;1.5;;;;;;;26.68;48.18066;939.386;;;;
2022/06/04 06:13:18;;;;;;;1.6;1.2;;;;;;;27.87;46.24316;939.4594;;;;
2022/06/04 06:15:43;;;;;;;1.2;1.1;;;;;;;26.28;48.55078;939.4122;;;;
2022/06/04 06:18:08;;;;;;;1.9;1.2;;;;;;;26.08;48.90918;939.4205;;;;
2022/06/04 06:20:33;;;;;;;1.4;1.1;;;;;;;26.22;48.49805;939.3967;;;;
2022/06/04 06:22:58;;;;;;;2.6;1.2;;;;;;;27.67;45.99609;939.4959;;;;
2022/06/04 06:25:24;;;;;;;4.6;1.3;;;;;;;28.07;44.38477;939.5267;;;;
2022/06/04 06:27:49;;;;;;;2.8;1.3;;;;;;;28.85;41.76074;939.5106;;;;
2022/06/04 06:30:14;;;;;;;2;1;;;;;;;29.58;41.11426;939.5745;;;;
2022/06/04 06:32:40;;;;;;;2.6;1.2;;;;;;;29.48;39.74512;939.6245;;;;
2022/06/04 06:35:04;;;;;;;2.3;1.1;;;;;;;31.4;37.80762;939.6273;;;;
2022/06/04 06:37:29;;;;;;;1.3;1.1;;;;;;;31.47;38.37695;939.6533;;;;
2022/06/04 06:39:55;;;;;;;1.7;0.9;;;;;;;29.53;39.57129;939.6178;;;;
2022/06/04 06:42:20;;;;;;;4.6;1.1;;;;;;;28.13;42.39551;939.6746;;;;
2022/06/04 06:44:45;;;;;;;1.2;1.1;;;;;;;28.54;42.38672;939.6767;;;;
2022/06/04 06:47:10;;;;;;;2.2;1.3;;;;;;;30.04;39.69922;939.6462;;;;
2022/06/04 06:49:36;;;;;;;1.8;1.1;;;;;;;28.83;42.34082;939.6682;;;;
2022/06/04 06:52:01;;;;;;;1.6;1.1;;;;;;;29.28;41.15723;939.5994;;;;
2022/06/04 06:54:26;;;;;;;2;1.1;;;;;;;32.01;36.83984;939.6802;;;;
2022/06/04 06:56:51;;;;;;;1.3;1;;;;;;;33.15;35.37109;939.7139;;;;
2022/06/04 06:59:16;;;;;;;2.6;1.3;;;;;;;33;34.79492;939.7139;;;;
2022/06/04 07:01:42;;;;;;;2.1;0.9;;;;;;;34.49;32.74023;939.7894;;;;
2022/06/04 07:04:07;;;;;;;2.3;1.2;;;;;;;34.78;33.21875;939.8705;;;;
2022/06/04 07:06:32;;;;;;;1.7;1;;;;;;;33.25;35.55957;939.8823;;;;
2022/06/04 07:08:57;;;;;;;2.8;1.1;;;;;;;31.87;37.55957;939.892;;;;
2022/06/04 07:11:22;;;;;;;2.3;1.1;;;;;;;33.08;34.59668;939.9402;;;;
2022/06/04 07:13:47;;;;;;;1.6;1.1;;;;;;;35.59;32.17969;939.9547;;;;
2022/06/04 07:16:12;;;;;;;2.2;1.2;;;;;;;33.14;33.75977;939.8956;;;;
2022/06/04 07:18:38;;;;;;;3.1;1.6;;;;;;;32.48;37.21484;939.8964;;;;
2022/06/04 07:21:03;;;;;;;2.3;1.2;;;;;;;31.51;36.78809;939.8312;;;;
2022/06/04 07:23:27;;;;;;;2.4;1.2;;;;;;;29.98;42.1875;939.8375;;;;
2022/06/04 07:25:53;;;;;;;1.8;1.1;;;;;;;30.02;42.22754;939.7889;;;;
2022/06/04 07:28:18;;;;;;;3;1.1;;;;;;;29.58;42.04297;939.7111;;;;
2022/06/04 07:30:43;;;;;;;2.6;1.5;;;;;;;28.71;42.8418;939.7285;;;;
2022/06/04 07:33:08;;;;;;;1.8;1.3;;;;;;;27.92;44.46582;939.67;;;;
2022/06/04 07:35:33;;;;;;;1.9;1.5;;;;;;;27.64;47.53613;939.6439;;;;
2022/06/04 07:37:59;;;;;;;1.6;1.2;;;;;;;27.95;45.62109;939.6746;;;;
2022/06/04 07:40:24;;;;;;;4.1;1.7;;;;;;;28.07;45.12109;939.6627;;;;
2022/06/04 07:42:49;;;;;;;5.1;1.6;;;;;;;27.34;49.24805;939.7134;;;;
2022/06/04 07:45:14;;;;;;;3.4;1.7;;;;;;;26.86;50.16699;939.5602;;;;
2022/06/04 07:47:40;;;;;;;6.2;1.6;;;;;;;25.71;50.33398;939.6688;;;;
2022/06/04 07:50:04;;;;;;;4.5;1.7;;;;;;;25.78;50.92188;939.6367;;;;
2022/06/04 07:52:29;;;;;;;3.6;1.6;;;;;;;25.93;52.02539;939.7017;;;;
2022/06/04 07:54:54;;;;;;;2.6;1.2;;;;;;;25.33;53.65723;939.6277;;;;
2022/06/04 07:57:19;;;;;;;3.7;1.3;;;;;;;24.61;52.09668;939.5966;;;;
2022/06/04 07:59:45;;;;;;;2.1;1.3;;;;;;;25.05;50.94434;939.5859;;;;
2022/06/04 08:02:10;;;;;;;3.8;1.2;;;;;;;24.67;52.53906;939.6085;;;;
2022/06/04 08:04:35;;;;;;;1.5;1.2;;;;;;;24.91;51.58789;939.6603;;;;
2022/06/04 08:07:04;;;;;;;2.3;1.4;;;;;;;25.18;54.41797;939.6806;;;;
2022/06/04 08:09:25;;;;;;;4.4;1.7;;;;;;;25.74;53.18555;939.6046;;;;
2022/06/04 08:11:50;;;;;;;3.8;1.5;;;;;;;26.63;50.22363;939.5667;;;;
2022/06/04 08:14:16;;;;;;;3.5;1.3;;;;;;;27.24;48.70313;939.6181;;;;
2022/06/04 08:16:41;;;;;;;2.6;1.3;;;;;;;28.3;48.2002;939.5759;;;;
2022/06/04 08:19:06;;;;;;;6.1;1.5;;;;;;;30.57;42.93555;939.5235;;;;
2022/06/04 08:21:31;;;;;;;2.6;1.3;;;;;;;30.7;43.00781;939.5162;;;;
2022/06/04 08:23:56;;;;;;;5.9;1.7;;;;;;;29.43;44.56738;939.4874;;;;
2022/06/04 08:26:21;;;;;;;2.9;1.4;;;;;;;31.25;40.16406;939.4899;;;;
2022/06/04 08:28:46;;;;;;;3.5;1.4;;;;;;;31.51;38.99023;939.4691;;;;
2022/06/04 08:31:11;;;;;;;4.2;1.5;;;;;;;31.04;41.16309;939.418;;;;
2022/06/04 08:33:37;;;;;;;2.3;1.4;;;;;;;31.12;40.18945;939.4099;;;;
2022/06/04 08:36:02;;;;;;;4.4;1.7;;;;;;;31.36;38.95313;939.3849;;;;
2022/06/04 08:38:26;;;;;;;3.4;1.4;;;;;;;30.95;40.5459;939.3438;;;;
2022/06/04 08:40:52;;;;;;;3.5;1.3;;;;;;;30.67;41.2373;939.3344;;;;
2022/06/04 08:43:17;;;;;;;2.9;1.4;;;;;;;31.3;40.1084;939.3075;;;;
2022/06/04 08:45:42;;;;;;;5.2;1.4;;;;;;;31.54;39.90332;939.4053;;;;
2022/06/04 08:48:07;;;;;;;5.2;1.6;;;;;;;32.64;37.10742;939.3787;;;;
2022/06/04 08:50:32;;;;;;;2.3;1.6;;;;;;;32.7;39.14063;939.3488;;;;
2022/06/04 08:52:57;;;;;;;4.4;1.7;;;;;;;30.38;43.4668;939.2783;;;;
2022/06/04 08:57:48;;;;;;;5.1;1.4;;;;;;;32.38;38.39453;939.3014;;;;
2022/06/04 09:00:13;;;;;;;4.3;1.5;;;;;;;31.86;39.06836;939.324;;;;
2022/06/04 09:02:38;;;;;;;2;1.3;;;;;;;31.57;39.39063;939.2322;;;;
2022/06/04 09:05:03;;;;;;;6.6;2;;;;;;;32.03;39.41895;939.3329;;;;
2022/06/04 09:07:28;;;;;;;3.2;1.5;;;;;;;30.25;42.94141;939.382;;;;
2022/06/04 09:09:53;;;;;;;2.9;1.4;;;;;;;31.13;42.06836;939.3608;;;;
2022/06/04 09:12:18;;;;;;;3.4;1.6;;;;;;;31.86;38.48145;939.267;;;;
2022/06/04 09:14:43;;;;;;;2.7;1.2;;;;;;;31.97;37.89063;939.2645;;;;
2022/06/04 09:17:08;;;;;;;4.6;1.4;;;;;;;32.11;38.52637;939.2123;;;;
2022/06/04 09:19:33;;;;;;;2.8;1.5;;;;;;;32.32;38.12402;939.1464;;;;
2022/06/04 09:21:59;;;;;;;3;1.3;;;;;;;32.72;36.41797;939.1568;;;;
2022/06/04 09:24:24;;;;;;;4;1.4;;;;;;;32.56;36.53711;939.1381;;;;
2022/06/04 09:26:49;;;;;;;4.3;1.7;;;;;;;32.42;36.81348;939.0634;;;;
2022/06/04 09:29:14;;;;;;;3.5;1.6;;;;;;;32.22;38.00879;938.998;;;;
2022/06/04 09:31:39;;;;;;;1.8;1.4;;;;;;;30.6;41.38574;938.8875;;;;
2022/06/04 09:34:04;;;;;;;2.6;1.2;;;;;;;31.58;42.74414;938.9364;;;;
2022/06/04 09:36:29;;;;;;;5.4;1.5;;;;;;;31.51;40.22363;938.9283;;;;
2022/06/04 09:38:54;;;;;;;3.4;1.2;;;;;;;31.75;38.78418;938.9101;;;;
2022/06/04 09:41:20;;;;;;;4.8;1.7;;;;;;;30.33;41.24121;938.83;;;;
2022/06/04 09:43:45;;;;;;;1.6;1.4;;;;;;;29.34;43.55762;938.8464;;;;
2022/06/04 09:46:10;;;;;;;2.8;1.5;;;;;;;30.68;40.80762;938.826;;;;
2022/06/04 09:48:35;;;;;;;2.1;1.2;;;;;;;31.61;38.8916;938.8546;;;;
2022/06/04 09:51:00;;;;;;;2.2;1.3;;;;;;;31.68;39.44727;938.8474;;;;
2022/06/04 09:53:25;;;;;;;4.2;1.5;;;;;;;31.81;39.81836;938.793;;;;
2022/06/04 09:55:51;;;;;;;3.5;1.8;;;;;;;30.62;43.82422;938.7108;;;;
2022/06/04 09:58:15;;;;;;;1.6;1.2;;;;;;;31.01;40.5625;938.7548;;;;
2022/06/04 10:00:40;;;;;;;2.9;1.4;;;;;;;31.3;41.40137;938.7709;;;;
2022/06/04 10:03:05;;;;;;;3.9;1.8;;;;;;;31.56;39.89355;938.7502;;;;
2022/06/04 10:05:30;;;;;;;3.4;1.6;;;;;;;29.46;46.78711;938.6782;;;;
2022/06/04 10:07:56;;;;;;;3.2;1.7;;;;;;;29.05;45.3877;938.7058;;;;
2022/06/04 10:10:21;;;;;;;5.3;2;;;;;;;29.17;46.3291;938.5958;;;;
2022/06/04 10:15:11;;;;;;;3.9;1.6;;;;;;;28.62;49.49512;938.4984;;;;
2022/06/04 10:17:37;;;;;;;4.6;1.8;;;;;;;28.93;47.93359;938.4827;;;;
2022/06/04 10:20:01;;;;;;;3.8;1.5;;;;;;;29.1;45.95215;938.488;;;;
2022/06/04 10:22:27;;;;;;;5.5;1.6;;;;;;;28.25;48.51465;938.4168;;;;
2022/06/04 10:24:52;;;;;;;7.7;2.6;;;;;;;28.78;47.98926;938.3226;;;;
2022/06/04 10:27:20;;;;;;;8.9;3.1;;;;;;;29.63;44.0752;938.2804;;;;
2022/06/04 10:29:42;;;;;;;8.8;3.3;;;;;;;30.04;45.11719;938.2921;;;;
2022/06/04 10:32:07;;;;;;;5;2;;;;;;;29.58;47.77637;938.2019;;;;
2022/06/04 10:34:33;;;;;;;6.9;2.5;;;;;;;29.82;43.91309;938.206;;;;
2022/06/04 10:36:58;;;;;;;5.8;2;;;;;;;29.64;45.08887;938.1605;;;;
2022/06/04 10:39:23;;;;;;;7.2;2.5;;;;;;;29.6;46.93262;938.1152;;;;
2022/06/04 10:41:48;;;;;;;4.3;1.8;;;;;;;29.17;48.09082;938.1572;;;;
2022/06/04 10:44:13;;;;;;;7.2;1.8;;;;;;;28.45;49.5957;938.0655;;;;
2022/06/04 10:46:38;;;;;;;4.3;1.9;;;;;;;28;51.88574;938.0402;;;;
2022/06/04 10:49:03;;;;;;;6.5;2;;;;;;;28.11;53.06348;938.0361;;;;
2022/06/04 10:51:28;;;;;;;4.9;1.9;;;;;;;28.32;49.75977;938.0095;;;;
2022/06/04 10:53:53;;;;;;;5.5;2.5;;;;;;;28.67;49.73828;937.9819;;;;
2022/06/04 10:56:18;;;;;;;4.2;1.7;;;;;;;28.65;51.17578;937.9615;;;;
2022/06/04 10:58:43;;;;;;;5.9;2.7;;;;;;;28.84;49.9248;937.9581;;;;
2022/06/04 11:01:09;;;;;;;4.7;2.3;;;;;;;28.96;49.65137;937.9892;;;;
2022/06/04 11:03:34;;;;;;;3.8;1.9;;;;;;;28.69;51.06055;937.9824;;;;
2022/06/04 11:05:59;;;;;;;5.6;2.3;;;;;;;28.95;48.61426;937.8984;;;;
2022/06/04 11:08:24;;;;;;;5.6;2.4;;;;;;;29.06;46.40039;937.8549;;;;
2022/06/04 11:10:49;;;;;;;5;2;;;;;;;28.65;50.56934;937.8675;;;;
2022/06/04 11:13:14;;;;;;;7.4;2.3;;;;;;;28.65;49.20117;937.8823;;;;
2022/06/04 11:15:40;;;;;;;6.3;2.4;;;;;;;28.45;48.7041;937.7761;;;;
2022/06/04 11:18:05;;;;;;;4.3;1.7;;;;;;;28.74;48.7832;937.8183;;;;
2022/06/04 11:20:30;;;;;;;5.2;1.7;;;;;;;28.78;47.40625;937.8259;;;;
2022/06/04 11:22:55;;;;;;;6.9;1.9;;;;;;;28.79;48.2168;937.8269;;;;
2022/06/04 11:25:24;;;;;;;5.7;1.8;;;;;;;29.02;45.87207;937.827;;;;
2022/06/04 11:27:47;;;;;;;3.9;1.8;;;;;;;28.89;48.32324;937.7916;;;;
2022/06/04 11:30:22;;;;;;;4.7;1.9;;;;;;;28.94;47.7334;937.6638;;;;
2022/06/04 11:32:49;;;;;;;5.5;2;;;;;;;29.05;47.86426;937.6987;;;;
2022/06/04 11:35:14;;;;;;;4.4;1.8;;;;;;;28.86;49.81836;937.6788;;;;
2022/06/04 11:37:46;;;;;;;3.8;1.4;;;;;;;28.72;49.2207;937.7051;;;;
2022/06/04 11:40:18;;;;;;;4.5;1.8;;;;;;;28.83;47.04297;937.6358;;;;
2022/06/04 11:42:51;;;;;;;3.4;2;;;;;;;28.51;50.56543;937.5609;;;;
2022/06/04 11:45:25;;;;;;;4;1.7;;;;;;;28.41;49.55469;937.5466;;;;
2022/06/04 11:47:56;;;;;;;5.5;1.9;;;;;;;28.17;51.02637;937.5945;;;;
2022/06/04 11:50:29;;;;;;;5.6;1.8;;;;;;;28.53;49.48535;937.6344;;;;
2022/06/04 11:53:01;;;;;;;4.9;1.5;;;;;;;28.56;49.96387;937.6467;;;;
2022/06/04 11:55:29;;;;;;;4.2;1.8;;;;;;;28.8;48.5752;937.5597;;;;
2022/06/04 11:58:00;;;;;;;6;2;;;;;;;28.89;47.93066;937.6024;;;;
2022/06/04 12:00:31;;;;;;;3;1.8;;;;;;;28.97;47.55762;937.4661;;;;
2022/06/04 12:02:58;;;;;;;4.4;1.8;;;;;;;29.01;47.06152;937.5314;;;;
2022/06/04 12:05:25;;;;;;;2.8;1.7;;;;;;;28.99;48.32129;937.5392;;;;
2022/06/04 12:07:56;;;;;;;4.3;1.5;;;;;;;29.16;46.48242;937.5754;;;;
2022/06/04 12:10:25;;;;;;;2.6;1.7;;;;;;;29.04;45.60059;937.5255;;;;
2022/06/04 12:12:52;;;;;;;3.7;1.8;;;;;;;29.04;49.26758;937.5144;;;;
2022/06/04 12:15:18;;;;;;;3.5;1.6;;;;;;;29.26;49.33984;937.5439;;;;
2022/06/04 12:17:51;;;;;;;5.3;1.6;;;;;;;29.2;46.11719;937.452;;;;
2022/06/04 12:25:31;;;;;;;3.1;1.7;;;;;;;28.22;49.33301;937.5073;;;;
2022/06/04 12:27:58;;;;;;;4.6;1.5;;;;;;;28.41;50.91113;937.5076;;;;
2022/06/04 12:30:24;;;;;;;3;1.7;;;;;;;28.61;50.80273;937.4941;;;;
2022/06/04 12:32:50;;;;;;;4.4;1.8;;;;;;;28.56;51.16602;937.5136;;;;
2022/06/04 12:35:21;;;;;;;4.2;1.6;;;;;;;28.31;52.99219;937.5246;;;;
2022/06/04 12:37:52;;;;;;;3;1.6;;;;;;;28.39;51.28906;937.4672;;;;
2022/06/04 12:40:19;;;;;;;6.6;2.1;;;;;;;28.04;52.50879;937.5075;;;;
2022/06/04 12:42:50;;;;;;;5.8;2;;;;;;;28.35;49.50098;937.5592;;;;
2022/06/04 12:45:20;;;;;;;3.4;2.1;;;;;;;28.29;51.36133;937.5648;;;;
2022/06/04 12:47:47;;;;;;;5.1;1.6;;;;;;;28.42;51.45801;937.5427;;;;
2022/06/04 12:50:22;;;;;;;5.3;2;;;;;;;28.65;49.74805;937.5558;;;;
2022/06/04 12:52:52;;;;;;;6.9;1.9;;;;;;;28.51;50.19727;937.5488;;;;
2022/06/04 12:55:19;;;;;;;3.3;1.9;;;;;;;28.49;50.69434;937.5672;;;;
2022/06/04 12:57:50;;;;;;;2.7;1.5;;;;;;;28.7;49.83789;937.6083;;;;
2022/06/04 13:00:18;;;;;;;3.6;1.8;;;;;;;28.82;48.99316;937.5807;;;;
2022/06/04 13:02:49;;;;;;;3.8;1.6;;;;;;;28.75;47.79688;937.5872;;;;
2022/06/04 13:05:16;;;;;;;2.4;1.6;;;;;;;28.84;49.24512;937.6355;;;;
2022/06/04 13:07:47;;;;;;;3.2;1.9;;;;;;;28.8;48.69434;937.6958;;;;
2022/06/04 13:10:19;;;;;;;2.6;1.7;;;;;;;28.91;50.00391;937.7294;;;;
2022/06/04 13:12:47;;;;;;;3.4;1.7;;;;;;;29;50.12012;937.7787;;;;
2022/06/04 13:15:18;;;;;;;7;1.8;;;;;;;28.72;49.39941;937.7513;;;;
2022/06/04 13:17:45;;;;;;;5.2;2.1;;;;;;;28.88;49.92773;937.8031;;;;
2022/06/04 13:20:17;;;;;;;2.4;1.8;;;;;;;29.01;49.00195;937.884;;;;
2022/06/04 13:22:44;;;;;;;2.6;1.6;;;;;;;29.2;47.70215;937.8753;;;;
2022/06/04 13:25:11;;;;;;;5.3;2;;;;;;;29.36;47.26563;937.9099;;;;
2022/06/04 13:27:37;;;;;;;2.9;1.6;;;;;;;29.42;46.44922;937.9699;;;;
2022/06/04 13:30:01;;;;;;;4.2;1.8;;;;;;;29.37;46.37305;937.9554;;;;
2022/06/04 13:32:37;;;;;;;4.4;1.9;;;;;;;29.23;45.72656;937.9749;;;;
2022/06/04 13:35:07;;;;;;;3.4;1.7;;;;;;;29.1;45.45117;938.1147;;;;
2022/06/04 13:37:39;;;;;;;4.4;2.2;;;;;;;28.95;46.95996;938.2119;;;;
2022/06/04 13:40:04;;;;;;;8;2.4;;;;;;;28.68;48.08691;938.1407;;;;
2022/06/04 13:42:35;;;;;;;4.5;1.8;;;;;;;28.68;48.38281;938.0862;;;;
2022/06/04 13:45:06;;;;;;;5.6;1.7;;;;;;;28.89;48.01465;938.1225;;;;
2022/06/04 13:47:39;;;;;;;3.3;1.6;;;;;;;28.97;47.5459;938.1368;;;;
2022/06/04 13:50:03;;;;;;;4.5;2;;;;;;;28.96;48.49707;938.0594;;;;
2022/06/04 13:52:30;;;;;;;5.4;2.1;;;;;;;28.85;48.83008;938.0497;;;;
2022/06/04 13:54:54;;;;;;;3.9;1.8;;;;;;;28.65;49.91504;938.0066;;;;
2022/06/04 13:57:22;;;;;;;3.8;1.9;;;;;;;28.65;49.08203;938.0281;;;;
2022/06/04 13:59:49;;;;;;;5.4;2;;;;;;;28.37;49.18262;938.036;;;;
2022/06/04 14:02:24;;;;;;;4.2;1.8;;;;;;;28.11;48.82129;938.0535;;;;
2022/06/04 14:07:21;;;;;;;5.2;2.3;;;;;;;28.11;50.79297;938.1177;;;;
2022/06/04 14:09:48;;;;;;;5.8;2.6;;;;;;;27.78;51.25488;938.1887;;;;
2022/06/04 14:12:18;;;;;;;4.2;1.9;;;;;;;27.88;50.3877;938.1616;;;;
2022/06/04 14:14:46;;;;;;;4.6;2.1;;;;;;;27.88;50.32813;938.0669;;;;
2022/06/04 14:17:13;;;;;;;5.2;2;;;;;;;27.81;50.90332;938.063;;;;
2022/06/04 14:19:37;;;;;;;3.7;2.3;;;;;;;27.85;52.9502;938.162;;;;
2022/06/04 14:22:02;;;;;;;3.9;1.8;;;;;;;27.98;50.31543;938.1362;;;;
2022/06/04 14:24:29;;;;;;;6.8;2.6;;;;;;;27.99;51.93359;938.1321;;;;
2022/06/04 14:26:54;;;;;;;4.5;2.4;;;;;;;27.9;52.54004;938.1752;;;;
2022/06/04 14:29:56;;;;;;;3.5;1.7;;;;;;;28.03;51.42676;938.1556;;;;
2022/06/04 14:32:21;;;;;;;3.6;2;;;;;;;27.97;52.16699;938.0903;;;;
2022/06/04 14:34:49;;;;;;;6.2;2.1;;;;;;;27.86;51.75098;938.1447;;;;
2022/06/04 14:37:21;;;;;;;5;2.2;;;;;;;27.99;52.21582;938.1269;;;;
2022/06/04 14:39:46;;;;;;;5.7;1.8;;;;;;;27.69;53.22754;938.1518;;;;
2022/06/04 14:42:11;;;;;;;6.3;2.2;;;;;;;27.52;54.58398;938.1816;;;;
2022/06/04 14:44:41;;;;;;;2.6;1.5;;;;;;;27.35;54.01855;938.2264;;;;
2022/06/04 14:47:07;;;;;;;4.3;2.1;;;;;;;27.33;53.89648;938.258;;;;
2022/06/04 14:49:35;;;;;;;3.7;1.8;;;;;;;26.98;54.35156;938.2495;;;;
2022/06/04 14:52:00;;;;;;;7.4;2.2;;;;;;;26.96;54.13672;938.285;;;;
2022/06/04 14:54:29;;;;;;;4;2.1;;;;;;;27.04;54.95215;938.3169;;;;
2022/06/04 14:56:54;;;;;;;6.2;1.9;;;;;;;27.04;55.61621;938.2395;;;;
2022/06/04 14:59:20;;;;;;;5.8;2.3;;;;;;;26.85;55.05957;938.2695;;;;
2022/06/04 15:01:55;;;;;;;3;1.8;;;;;;;26.88;54.8252;938.3047;;;;
2022/06/04 15:04:20;;;;;;;3.8;2;;;;;;;26.88;54.5293;938.3211;;;;
2022/06/04 15:06:46;;;;;;;5;2.2;;;;;;;27.16;54.36328;938.3251;;;;
2022/06/04 15:09:18;;;;;;;5.5;2.2;;;;;;;27.23;53.125;938.3206;;;;
2022/06/04 15:11:43;;;;;;;3.7;2.1;;;;;;;27.19;55.35059;938.3317;;;;
2022/06/04 15:14:08;;;;;;;5.7;2.1;;;;;;;27.24;55.27246;938.3553;;;;
2022/06/04 15:16:36;;;;;;;3.8;1.8;;;;;;;27.16;55.64258;938.4317;;;;
2022/06/04 15:19:00;;;;;;;2.8;1.7;;;;;;;27.32;53.97852;938.4048;;;;
2022/06/04 15:21:25;;;;;;;4.1;2.5;;;;;;;27.4;54.01074;938.3499;;;;
2022/06/04 15:23:53;;;;;;;4.1;2.2;;;;;;;27.46;54.10156;938.3739;;;;
2022/06/04 15:26:18;;;;;;;5.6;1.8;;;;;;;27.42;53.1123;938.3766;;;;
2022/06/04 15:36:16;;;;;;;4.5;1.8;;;;;;;27.16;54.19727;938.353;;;;
2022/06/04 15:38:25;;;;;;;4;2;;;;;;;27.13;54.02637;938.3972;;;;
2022/06/04 15:40:50;;;;;;;6.4;2;;;;;;;27.19;54.16504;938.3709;;;;
2022/06/04 15:43:15;;;;;;;4.5;2.4;;;;;;;27.26;55.71484;938.368;;;;
2022/06/04 15:45:40;;;;;;;5.3;2;;;;;;;26.96;55.96094;938.2733;;;;
2022/06/04 15:48:13;;;;;;;4.1;2.2;;;;;;;26.92;55.04395;938.3147;;;;
2022/06/04 15:55:35;;;;;;;4.2;2.1;;;;;;;26.78;55.40625;938.3572;;;;
2022/06/04 15:58:02;;;;;;;5.1;2.3;;;;;;;26.84;55.25977;938.3949;;;;
2022/06/04 16:00:30;;;;;;;4.1;1.9;;;;;;;27.08;55.53711;938.3681;;;;
2022/06/04 16:02:59;;;;;;;4.9;2.3;;;;;;;26.98;56.5332;938.4445;;;;
2022/06/04 16:05:30;;;;;;;3;2.1;;;;;;;26.98;54.8623;938.4455;;;;
2022/06/04 16:07:55;;;;;;;4.3;2.3;;;;;;;27.21;54.59375;938.5039;;;;